エドモントン の空港の天気 - METARとTAF

エドモントン国際空港 ( CYEG / YEG ) - カナダ アルバータ州Edmonton Capital Region
飛行場実況気象(Metar)
観測時間04/21 10:00 MDT (04/21 16:00 UTC)
風向・風速南南西 5m/s
視程10km以上
天気現象
少しの雲 雲底高度 7620m
気温9℃
湿度32%
気圧1022.8hPa
METARCYEG 211600Z 21010KT 20SM FEW250 09/M07 A3013 RMK CI1 CI TR SLP228
過去の天気等 Google飛行場航空写真 Wunderground天気予報

過去48時間のMETAR

飛行場予報(TAF)
発表時間: 4/21 08:38 MDT (4/21 14:38 UTC)
予報対象時間: 21日9時 MDT ~ 22日6時 MDT
風向・風速南東 3m/s
視程10km以上
少しの雲 雲底高度 6100m
21日14時 MDT から
風向・風速南南東 4m/s
視程10km以上
少しの雲 雲底高度 2440m
全天の4割程度の雲 雲底高度 4270m
21日17時 MDT ~ 21日19時 MDT に徐々に
風向・風速東南東 4m/s
22日3時 MDT から
風向・風速南西 3m/s
視程10km以上
少しの雲 雲底高度 6100m
TAF CYEG 211438Z 2115/2212 14005KT P6SM FEW200
FM212000 15008KT P6SM FEW080 SCT140
BECMG 2123/2201 11008KT
FM220900 22005KT P6SM FEW200 RMK NXT FCST BY 211800Z